createdAt,value
2018-07-23T00:01:44.486Z,22.57
2018-07-23T00:04:12.889Z,22.07
2018-07-23T00:06:41.360Z,22.40
2018-07-23T00:09:09.846Z,24.10
2018-07-23T00:11:38.341Z,23.23
2018-07-23T00:14:06.828Z,22.07
2018-07-23T00:16:35.289Z,21.77
2018-07-23T00:19:03.726Z,22.23
2018-07-23T00:21:32.194Z,22.90
2018-07-23T00:24:00.617Z,23.23
2018-07-23T00:26:29.077Z,23.03
2018-07-23T00:28:57.537Z,22.90
2018-07-23T00:31:26.042Z,21.70
2018-07-23T00:33:54.477Z,21.53
2018-07-23T00:36:22.979Z,21.40
2018-07-23T00:38:51.405Z,21.87
2018-07-23T00:41:19.889Z,22.77
2018-07-23T00:43:48.402Z,24.87
2018-07-23T00:46:16.850Z,23.63
2018-07-23T00:48:45.289Z,24.77
2018-07-23T00:51:13.834Z,23.87
2018-07-23T00:53:42.278Z,22.97
2018-07-23T00:56:10.422Z,24.67
2018-07-23T00:58:38.868Z,25.23
2018-07-23T01:01:07.324Z,25.63
2018-07-23T01:03:35.793Z,25.40
2018-07-23T01:06:03.953Z,22.90
2018-07-23T01:08:32.079Z,22.93
2018-07-23T01:11:00.558Z,22.70
2018-07-23T01:13:29.013Z,23.57
2018-07-23T01:15:57.472Z,24.67
2018-07-23T01:18:25.608Z,22.80
2018-07-23T01:20:54.074Z,24.33
2018-07-23T01:23:22.534Z,23.77
2018-07-23T01:25:50.990Z,23.10
2018-07-23T01:28:19.446Z,23.37
2018-07-23T01:30:47.928Z,23.10
2018-07-23T01:33:16.374Z,24.90
2018-07-23T01:35:44.835Z,23.10
2018-07-23T01:38:13.288Z,23.57
2018-07-23T01:40:41.856Z,24.50
2018-07-23T01:43:10.256Z,23.77
2018-07-23T01:45:38.713Z,23.47
2018-07-23T01:48:07.221Z,24.13
2018-07-23T01:50:35.702Z,23.63
2018-07-23T01:53:04.154Z,23.63
2018-07-23T01:55:32.629Z,25.33
2018-07-23T01:58:01.089Z,23.87
2018-07-23T02:00:29.566Z,24.40
2018-07-23T02:02:58.045Z,26.37
2018-07-23T02:05:26.497Z,25.63
2018-07-23T02:07:54.970Z,23.10
2018-07-23T02:10:23.414Z,25.13
2018-07-23T02:12:52.612Z,23.40
2018-07-23T02:15:21.065Z,23.93
2018-07-23T02:17:49.564Z,25.47
2018-07-23T02:20:18.012Z,24.43
2018-07-23T02:22:46.487Z,23.07
2018-07-23T02:25:14.930Z,24.17
2018-07-23T02:27:43.430Z,26.97
2018-07-23T02:30:11.877Z,26.07
2018-07-23T02:32:40.345Z,26.50
2018-07-23T02:35:08.810Z,24.10
2018-07-23T02:37:37.296Z,24.77
2018-07-23T02:40:05.864Z,24.23
2018-07-23T02:42:34.371Z,26.63
2018-07-23T02:45:02.853Z,25.67
2018-07-23T02:47:31.330Z,29.17
2018-07-23T02:49:59.791Z,27.17
2018-07-23T02:52:28.295Z,26.43
2018-07-23T02:54:56.753Z,27.57
2018-07-23T02:57:25.242Z,26.20
2018-07-23T02:59:53.703Z,26.03
2018-07-23T03:02:22.214Z,30.07
2018-07-23T03:04:50.661Z,27.37
2018-07-23T03:07:19.170Z,25.77
2018-07-23T03:09:47.619Z,26.57
2018-07-23T03:12:16.094Z,28.03
2018-07-23T03:14:44.582Z,25.37
2018-07-23T03:17:13.054Z,24.67
2018-07-23T03:19:41.533Z,27.17
2018-07-23T03:22:10.053Z,26.17
2018-07-23T03:24:38.503Z,26.10
2018-07-23T03:27:07.342Z,26.13
2018-07-23T03:29:35.561Z,25.90
2018-07-23T03:32:04.049Z,25.07
2018-07-23T03:34:32.518Z,24.30
2018-07-23T03:37:00.993Z,23.20
2018-07-23T03:39:29.450Z,23.23
2018-07-23T03:41:57.979Z,23.87
2018-07-23T03:44:26.443Z,25.33
2018-07-23T03:46:54.913Z,24.77
2018-07-23T03:49:23.360Z,25.70
2018-07-23T03:51:51.844Z,23.93
2018-07-23T03:54:20.000Z,26.03
2018-07-23T03:56:48.501Z,24.97
2018-07-23T03:59:16.629Z,23.97
2018-07-23T04:01:45.165Z,23.87
2018-07-23T04:04:16.385Z,23.93
2018-07-23T04:06:45.324Z,23.63
2018-07-23T04:09:13.810Z,25.13
2018-07-23T04:11:42.570Z,27.17
2018-07-23T04:14:11.033Z,27.83
2018-07-23T04:16:39.529Z,26.90
2018-07-23T04:19:08.002Z,24.90
2018-07-23T04:21:36.669Z,23.27
2018-07-23T04:24:04.881Z,23.00
2018-07-23T04:26:33.373Z,23.50
2018-07-23T04:29:01.858Z,24.40
2018-07-23T04:31:30.325Z,24.67
2018-07-23T04:33:58.801Z,24.33
2018-07-23T04:36:27.249Z,23.53
2018-07-23T04:38:55.721Z,22.37
2018-07-23T04:41:24.194Z,24.50
2018-07-23T04:43:52.682Z,23.27
2018-07-23T04:46:21.129Z,23.67
2018-07-23T04:48:49.601Z,23.67
2018-07-23T04:51:18.053Z,22.53
2018-07-23T04:53:46.510Z,22.73
2018-07-23T04:56:14.996Z,23.53
2018-07-23T04:58:43.457Z,22.20
2018-07-23T05:01:11.917Z,23.00
2018-07-23T05:03:40.434Z,23.77
2018-07-23T05:06:08.922Z,25.30
2018-07-23T05:08:37.405Z,25.10
2018-07-23T05:11:05.901Z,25.20
2018-07-23T05:13:34.370Z,24.13
2018-07-23T05:16:02.847Z,23.57
2018-07-23T05:18:31.333Z,23.20
2018-07-23T05:20:59.777Z,24.97
2018-07-23T05:23:28.270Z,24.40
2018-07-23T05:25:56.401Z,24.50
2018-07-23T05:28:24.889Z,24.60
2018-07-23T05:30:53.337Z,24.00
2018-07-23T05:33:21.803Z,23.10
2018-07-23T05:35:50.242Z,24.60
2018-07-23T05:38:18.726Z,23.50
2018-07-23T05:40:47.169Z,23.67
2018-07-23T05:43:15.662Z,22.23
2018-07-23T05:45:44.150Z,23.23
2018-07-23T05:48:12.634Z,22.20
2018-07-23T05:50:41.094Z,23.40
2018-07-23T05:53:09.593Z,24.47
2018-07-23T05:55:38.707Z,25.50
2018-07-23T05:58:07.216Z,27.33
2018-07-23T06:00:35.706Z,25.57
2018-07-23T06:03:04.178Z,26.50
2018-07-23T06:05:32.634Z,26.13
2018-07-23T06:08:01.125Z,26.67
2018-07-23T06:10:29.263Z,25.77
2018-07-23T06:12:57.765Z,25.57
2018-07-23T06:15:26.249Z,25.37
2018-07-23T06:17:54.729Z,22.90
2018-07-23T06:20:23.221Z,23.47
2018-07-23T06:22:51.713Z,22.40
2018-07-23T06:25:20.172Z,21.33
2018-07-23T06:27:48.380Z,21.10
2018-07-23T06:30:16.887Z,20.53
2018-07-23T06:32:45.374Z,21.20
2018-07-23T06:35:13.877Z,20.30
2018-07-23T06:37:42.424Z,22.07
2018-07-23T06:40:10.914Z,20.93
2018-07-23T06:42:39.413Z,22.40
2018-07-23T06:45:07.868Z,21.93
2018-07-23T06:47:36.349Z,21.27
2018-07-23T06:50:04.888Z,18.93
2018-07-23T06:52:33.367Z,19.47
2018-07-23T06:55:01.818Z,19.23
2018-07-23T06:57:30.329Z,19.00
2018-07-23T06:59:58.753Z,18.07
2018-07-23T07:02:27.210Z,17.37
2018-07-23T07:04:55.694Z,17.17
2018-07-23T07:07:24.165Z,15.37
2018-07-23T07:09:52.625Z,18.00
2018-07-23T07:12:20.776Z,15.37
2018-07-23T07:14:49.277Z,16.17
2018-07-23T07:17:17.412Z,15.83
2018-07-23T07:19:45.898Z,14.67
2018-07-23T07:22:14.366Z,16.13
2018-07-23T07:24:43.224Z,13.77
2018-07-23T07:27:11.701Z,15.43
2018-07-23T07:29:40.181Z,14.70
2018-07-23T07:32:08.675Z,14.57
2018-07-23T07:34:37.146Z,15.13
2018-07-23T07:37:05.730Z,14.53
2018-07-23T07:39:34.198Z,13.30
2018-07-23T07:42:02.687Z,13.17
2018-07-23T07:44:31.163Z,11.97
2018-07-23T07:46:59.606Z,11.83
2018-07-23T07:49:28.070Z,10.50
2018-07-23T07:51:56.509Z,9.90
2018-07-23T07:54:24.981Z,9.17
2018-07-23T07:56:53.453Z,9.37
2018-07-23T07:59:22.226Z,8.03
2018-07-23T08:01:50.625Z,7.70
2018-07-23T08:04:25.687Z,7.80
2018-07-23T08:06:54.965Z,7.50
2018-07-23T08:09:23.430Z,6.97
2018-07-23T08:11:51.887Z,6.60
2018-07-23T08:14:20.405Z,6.87
2018-07-23T08:16:48.845Z,6.73
2018-07-23T08:19:17.305Z,7.13
2018-07-23T08:21:45.756Z,6.60
2018-07-23T08:24:14.208Z,6.60
2018-07-23T08:26:42.329Z,6.67
2018-07-23T08:29:10.825Z,6.63
2018-07-23T08:31:39.325Z,7.27
2018-07-23T08:34:07.830Z,6.77
2018-07-23T08:36:36.285Z,7.47
2018-07-23T08:39:06.670Z,7.27
2018-07-23T08:41:35.130Z,7.37
2018-07-23T08:44:03.610Z,8.23
2018-07-23T08:46:32.047Z,8.30
2018-07-23T08:49:00.559Z,8.23
2018-07-23T08:51:29.013Z,7.40
2018-07-23T08:53:57.181Z,7.30
2018-07-23T08:56:25.649Z,8.70
2018-07-23T08:58:54.132Z,7.67
2018-07-23T09:01:22.577Z,7.07
2018-07-23T09:03:51.033Z,7.13
2018-07-23T09:06:19.478Z,7.77
2018-07-23T09:08:47.971Z,7.77
2018-07-23T09:11:16.430Z,8.07
2018-07-23T09:13:44.897Z,9.43
2018-07-23T09:16:13.350Z,7.43
2018-07-23T09:18:41.802Z,7.73
2018-07-23T09:21:10.254Z,8.00
2018-07-23T09:23:38.717Z,7.13
2018-07-23T09:26:07.198Z,8.23
2018-07-23T09:28:35.702Z,7.37
2018-07-23T09:31:04.223Z,7.57
2018-07-23T09:33:32.673Z,8.00
2018-07-23T09:36:00.821Z,7.90
2018-07-23T09:38:29.270Z,7.77
2018-07-23T09:40:57.754Z,7.60
2018-07-23T09:43:26.197Z,7.37
2018-07-23T09:45:54.757Z,8.10
2018-07-23T09:48:23.187Z,7.80
2018-07-23T09:50:51.647Z,7.27
2018-07-23T09:53:20.114Z,8.63
2018-07-23T09:55:48.573Z,9.27
2018-07-23T09:58:17.022Z,7.83
2018-07-23T10:00:50.798Z,7.73
2018-07-23T10:03:19.259Z,7.47
2018-07-23T10:05:47.734Z,7.27
2018-07-23T10:08:15.866Z,7.10
2018-07-23T10:10:44.352Z,7.93
2018-07-23T10:13:12.803Z,8.00
2018-07-23T10:15:41.273Z,7.67
2018-07-23T10:18:09.722Z,7.43
2018-07-23T10:20:38.205Z,7.43
2018-07-23T10:23:06.670Z,7.60
2018-07-23T10:25:35.146Z,7.10
2018-07-23T10:28:03.637Z,6.50
2018-07-23T10:30:32.113Z,6.50
2018-07-23T10:33:00.556Z,5.97
2018-07-23T10:35:29.018Z,5.93
2018-07-23T10:37:57.482Z,6.23
2018-07-23T10:40:25.964Z,6.47
2018-07-23T10:42:54.413Z,5.53
2018-07-23T10:45:22.914Z,6.70
2018-07-23T10:47:51.066Z,6.13
2018-07-23T10:50:19.585Z,6.80
2018-07-23T10:52:48.055Z,7.50
2018-07-23T10:55:16.525Z,5.80
2018-07-23T10:57:44.957Z,5.87
2018-07-23T11:00:13.462Z,6.60
2018-07-23T11:02:41.938Z,5.87
2018-07-23T11:05:10.885Z,6.03
2018-07-23T11:07:39.394Z,6.40
2018-07-23T11:10:08.554Z,6.43
2018-07-23T11:12:37.428Z,5.50
2018-07-23T11:15:06.660Z,6.33
2018-07-23T11:17:35.730Z,6.03
2018-07-23T11:20:04.818Z,6.13
2018-07-23T11:22:33.374Z,5.80
2018-07-23T11:25:38.219Z,5.40
2018-07-23T11:27:30.377Z,6.17
2018-07-23T11:29:58.849Z,6.07
2018-07-23T11:32:27.322Z,6.43
2018-07-23T11:34:55.537Z,6.10
2018-07-23T11:37:24.010Z,6.20
2018-07-23T11:39:52.497Z,6.20
2018-07-23T11:42:20.946Z,6.07
2018-07-23T11:44:49.442Z,6.40
2018-07-23T11:47:17.994Z,6.40
2018-07-23T11:49:46.426Z,5.77
2018-07-23T11:52:14.881Z,5.73
2018-07-23T11:54:43.432Z,6.60
2018-07-23T11:57:11.696Z,6.17
2018-07-23T11:59:40.168Z,5.67
2018-07-23T12:02:09.028Z,5.30
2018-07-23T12:04:37.738Z,6.57
2018-07-23T12:07:06.646Z,6.07
2018-07-23T12:09:35.101Z,5.97
2018-07-23T12:12:03.606Z,6.47
2018-07-23T12:14:32.145Z,6.33
2018-07-23T12:17:00.641Z,6.70
2018-07-23T12:19:29.092Z,6.67
2018-07-23T12:21:57.597Z,6.63
2018-07-23T12:24:26.103Z,7.00
2018-07-23T12:26:54.586Z,5.80
2018-07-23T12:29:23.070Z,6.23
2018-07-23T12:31:51.538Z,8.03
2018-07-23T12:34:19.982Z,5.97
2018-07-23T12:36:48.455Z,6.47
2018-07-23T12:39:16.939Z,6.13
2018-07-23T12:41:45.394Z,6.43
2018-07-23T12:44:14.426Z,6.00
2018-07-23T12:46:42.899Z,5.87
2018-07-23T12:49:11.357Z,6.37
2018-07-23T12:51:39.829Z,6.00
2018-07-23T12:54:08.338Z,5.40
2018-07-23T12:56:36.833Z,6.13
2018-07-23T12:59:05.282Z,6.63
2018-07-23T13:01:33.749Z,5.97
2018-07-23T13:04:02.225Z,5.80
2018-07-23T13:06:30.703Z,6.53
2018-07-23T13:08:59.158Z,6.20
2018-07-23T13:11:27.645Z,5.57
2018-07-23T13:13:56.142Z,6.33
2018-07-23T13:16:24.606Z,5.63
2018-07-23T13:18:52.749Z,5.90
2018-07-23T13:21:21.213Z,5.57
2018-07-23T13:23:49.659Z,5.60
2018-07-23T13:26:18.130Z,6.13
2018-07-23T13:28:46.273Z,5.90
2018-07-23T13:31:14.750Z,6.57
2018-07-23T13:33:43.202Z,6.27
2018-07-23T13:36:11.687Z,6.10
2018-07-23T13:38:40.199Z,5.90
2018-07-23T13:41:08.727Z,5.90
2018-07-23T13:43:37.590Z,5.70
2018-07-23T13:46:06.110Z,5.73
2018-07-23T13:48:34.565Z,6.10
2018-07-23T13:51:03.162Z,5.67
2018-07-23T13:53:31.632Z,5.77
2018-07-23T13:56:00.146Z,5.90
2018-07-23T13:58:28.593Z,5.50
2018-07-23T14:00:57.053Z,5.60
2018-07-23T14:03:25.216Z,5.30
2018-07-23T14:05:53.698Z,5.47
2018-07-23T14:08:23.289Z,5.37
2018-07-23T14:10:51.763Z,5.57
2018-07-23T14:13:20.218Z,4.97
2018-07-23T14:15:48.701Z,4.87
2018-07-23T14:18:17.215Z,4.80
2018-07-23T14:20:45.674Z,5.03
2018-07-23T14:23:14.129Z,5.47
2018-07-23T14:25:42.582Z,5.00
2018-07-23T14:28:10.770Z,4.90
2018-07-23T14:30:39.283Z,4.63
2018-07-23T14:33:07.754Z,4.50
2018-07-23T14:35:36.497Z,4.73
2018-07-23T14:38:04.670Z,4.73
2018-07-23T14:40:32.802Z,4.80
2018-07-23T14:43:01.306Z,4.93
2018-07-23T14:45:29.811Z,4.70
2018-07-23T14:47:57.974Z,4.53
2018-07-23T14:50:26.123Z,4.83
2018-07-23T14:52:54.593Z,5.00
2018-07-23T14:55:23.064Z,4.90
2018-07-23T14:57:51.695Z,4.80
2018-07-23T15:00:20.085Z,5.17
2018-07-23T15:02:48.571Z,4.90
2018-07-23T15:05:17.351Z,5.17
2018-07-23T15:07:45.810Z,5.20
2018-07-23T15:10:14.310Z,4.47
2018-07-23T15:12:42.771Z,4.83
2018-07-23T15:15:11.245Z,4.90
2018-07-23T15:17:39.813Z,4.87
2018-07-23T15:20:08.318Z,5.07
2018-07-23T15:22:36.769Z,5.00
2018-07-23T15:25:05.250Z,5.20
2018-07-23T15:27:33.718Z,5.53
2018-07-23T15:30:02.217Z,5.37
2018-07-23T15:32:30.694Z,5.20
2018-07-23T15:34:59.181Z,6.03
2018-07-23T15:37:27.649Z,5.80
2018-07-23T15:39:56.143Z,5.77
2018-07-23T15:42:24.629Z,5.97
2018-07-23T15:44:53.358Z,6.23
2018-07-23T15:47:21.606Z,6.23
2018-07-23T15:49:50.078Z,5.47
2018-07-23T15:52:18.541Z,6.03
2018-07-23T15:54:46.997Z,6.40
2018-07-23T15:57:15.447Z,6.07
2018-07-23T15:59:43.993Z,6.03
2018-07-23T16:02:12.463Z,5.97
2018-07-23T16:04:40.951Z,6.23
2018-07-23T16:07:09.418Z,6.30
2018-07-23T16:09:37.881Z,5.90
2018-07-23T16:12:06.366Z,6.30
2018-07-23T16:14:34.830Z,6.37
2018-07-23T16:17:02.968Z,5.37
2018-07-23T16:19:31.443Z,5.63
2018-07-23T16:21:59.912Z,6.33
2018-07-23T16:24:28.416Z,6.07
2018-07-23T16:26:56.864Z,6.00
2018-07-23T16:29:25.357Z,6.00
2018-07-23T16:31:53.823Z,5.93
2018-07-23T16:34:22.285Z,6.27
2018-07-23T16:36:50.444Z,5.83
2018-07-23T16:39:18.900Z,6.43
2018-07-23T16:41:47.389Z,6.07
2018-07-23T16:44:15.848Z,6.70
2018-07-23T16:46:44.332Z,7.07
2018-07-23T16:49:12.826Z,6.50
2018-07-23T16:51:41.270Z,6.87
2018-07-23T16:54:09.402Z,6.77
2018-07-23T16:56:38.027Z,6.73
2018-07-23T16:59:06.168Z,6.97
2018-07-23T17:01:35.074Z,7.57
2018-07-23T17:04:03.583Z,7.50
2018-07-23T17:06:32.046Z,7.17
2018-07-23T17:09:00.520Z,7.20
2018-07-23T17:11:29.008Z,7.73
2018-07-23T17:13:57.473Z,7.23
2018-07-23T17:16:25.964Z,7.10
2018-07-23T17:18:54.661Z,7.53
2018-07-23T17:21:23.155Z,6.60
2018-07-23T17:23:51.673Z,6.90
2018-07-23T17:26:20.633Z,6.90
2018-07-23T17:28:49.242Z,6.03
2018-07-23T17:31:17.717Z,6.40
2018-07-23T17:33:46.219Z,5.37
2018-07-23T17:36:14.838Z,5.17
2018-07-23T17:38:43.347Z,5.30
2018-07-23T17:41:11.825Z,5.83
2018-07-23T17:43:40.281Z,5.90
2018-07-23T17:46:08.781Z,5.30
2018-07-23T17:48:37.256Z,5.03
2018-07-23T17:51:05.756Z,5.07
2018-07-23T17:53:34.245Z,4.93
2018-07-23T17:56:02.717Z,4.53
2018-07-23T17:58:31.177Z,4.87
2018-07-23T18:00:59.700Z,5.70
2018-07-23T18:03:28.316Z,4.57
2018-07-23T18:05:56.809Z,4.17
2018-07-23T18:08:25.266Z,4.93
2018-07-23T18:10:54.281Z,4.00
2018-07-23T18:13:22.734Z,4.03
2018-07-23T18:15:51.225Z,4.20
2018-07-23T18:18:20.022Z,3.93
2018-07-23T18:20:48.493Z,4.13
2018-07-23T18:23:17.013Z,4.10
2018-07-23T18:25:46.757Z,3.97
2018-07-23T18:28:16.357Z,4.40
2018-07-23T18:30:44.511Z,4.13
2018-07-23T18:33:12.975Z,4.07
2018-07-23T18:35:41.476Z,3.57
2018-07-23T18:38:09.973Z,4.37
2018-07-23T18:40:38.435Z,4.63
2018-07-23T18:43:06.914Z,4.37
2018-07-23T18:45:35.566Z,4.00
2018-07-23T18:48:12.049Z,4.30
2018-07-23T18:50:40.525Z,4.23
2018-07-23T18:53:09.053Z,4.10
2018-07-23T18:55:37.208Z,4.40
2018-07-23T18:58:05.658Z,6.97
2018-07-23T19:00:34.121Z,4.33
2018-07-23T19:03:08.618Z,4.57
2018-07-23T19:05:37.093Z,4.70
2018-07-23T19:08:05.581Z,4.20
2018-07-23T19:10:34.102Z,4.70
2018-07-23T19:13:02.546Z,4.60
2018-07-23T19:15:31.026Z,5.20
2018-07-23T19:17:59.471Z,5.03
2018-07-23T19:20:27.989Z,4.97
2018-07-23T19:22:56.401Z,5.10
2018-07-23T19:25:24.877Z,4.90
2018-07-23T19:27:53.353Z,4.83
2018-07-23T19:30:21.810Z,4.93
2018-07-23T19:32:50.276Z,5.53
2018-07-23T19:35:18.799Z,4.30
2018-07-23T19:37:47.298Z,4.53
2018-07-23T19:40:15.786Z,5.10
2018-07-23T19:42:44.265Z,4.80
2018-07-23T19:45:12.729Z,4.60
2018-07-23T19:47:41.283Z,5.60
2018-07-23T19:50:09.710Z,4.70
2018-07-23T19:52:38.193Z,4.47
2018-07-23T19:55:06.722Z,5.13
2018-07-23T19:57:35.192Z,4.70
2018-07-23T20:00:04.000Z,5.23
2018-07-23T20:02:32.484Z,4.57
2018-07-23T20:05:01.660Z,4.43
2018-07-23T20:07:30.111Z,4.67
2018-07-23T20:09:58.573Z,4.67
2018-07-23T20:12:27.163Z,4.73
2018-07-23T20:14:56.111Z,4.63
2018-07-23T20:17:25.699Z,4.50
2018-07-23T20:19:54.176Z,5.10
2018-07-23T20:22:22.631Z,4.90
2018-07-23T20:24:51.086Z,4.80
2018-07-23T20:27:19.590Z,5.10
2018-07-23T20:29:48.053Z,5.17
2018-07-23T20:32:16.517Z,5.40
2018-07-23T20:34:45.955Z,5.27
2018-07-23T20:37:14.128Z,5.50
2018-07-23T20:39:43.481Z,4.63
2018-07-23T20:42:11.979Z,5.13
2018-07-23T20:44:40.490Z,5.50
2018-07-23T20:47:08.922Z,5.77
2018-07-23T20:49:37.365Z,4.90
2018-07-23T20:52:05.546Z,5.30
2018-07-23T20:54:34.018Z,5.10
2018-07-23T20:57:02.166Z,5.17
2018-07-23T20:59:30.618Z,5.40
2018-07-23T21:01:59.108Z,4.73
2018-07-23T21:04:27.555Z,5.30
2018-07-23T21:06:56.015Z,5.27
2018-07-23T21:09:24.472Z,5.10
2018-07-23T21:11:52.945Z,5.30
2018-07-23T21:14:21.397Z,5.10
2018-07-23T21:16:49.901Z,5.63
2018-07-23T21:19:18.347Z,5.77
2018-07-23T21:21:46.838Z,5.60
2018-07-23T21:24:15.286Z,5.37
2018-07-23T21:26:43.779Z,5.70
2018-07-23T21:29:12.264Z,6.07
2018-07-23T21:31:40.740Z,5.70
2018-07-23T21:34:09.237Z,5.87
2018-07-23T21:36:37.710Z,6.07
2018-07-23T21:39:08.112Z,5.40
2018-07-23T21:41:36.700Z,5.57
2018-07-23T21:44:05.185Z,5.63
2018-07-23T21:46:33.657Z,5.40
2018-07-23T21:49:02.142Z,5.53
2018-07-23T21:51:30.609Z,6.00
2018-07-23T21:53:59.129Z,5.80
2018-07-23T21:56:27.865Z,5.30
2018-07-23T21:58:56.393Z,5.63
2018-07-23T22:01:24.876Z,6.00
2018-07-23T22:03:53.486Z,5.90
2018-07-23T22:06:23.641Z,5.57
2018-07-23T22:08:53.871Z,6.00
2018-07-23T22:11:22.366Z,5.40
2018-07-23T22:13:50.826Z,6.27
2018-07-23T22:16:19.273Z,6.03
2018-07-23T22:18:47.758Z,5.97
2018-07-23T22:21:16.210Z,6.37
2018-07-23T22:23:44.693Z,5.97
2018-07-23T22:26:13.152Z,5.97
2018-07-23T22:28:41.693Z,6.03
2018-07-23T22:31:09.844Z,6.87
2018-07-23T22:33:38.321Z,6.20
2018-07-23T22:36:06.926Z,7.27
2018-07-23T22:38:35.104Z,7.00
2018-07-23T22:41:03.557Z,6.43
2018-07-23T22:43:32.026Z,6.17
2018-07-23T22:46:00.473Z,6.23
2018-07-23T22:48:28.941Z,6.00
2018-07-23T22:50:57.394Z,6.50
2018-07-23T22:53:25.886Z,6.63
2018-07-23T22:55:54.366Z,6.37
2018-07-23T22:58:22.838Z,6.77
2018-07-23T23:00:51.289Z,6.70
2018-07-23T23:03:19.867Z,7.13
2018-07-23T23:05:48.322Z,6.43
2018-07-23T23:08:16.865Z,7.07
2018-07-23T23:10:45.321Z,6.37
2018-07-23T23:13:13.786Z,6.83
2018-07-23T23:15:42.423Z,6.77
2018-07-23T23:18:10.564Z,7.17
2018-07-23T23:20:39.013Z,6.73
2018-07-23T23:23:07.514Z,7.17
2018-07-23T23:25:35.970Z,7.00
2018-07-23T23:28:04.523Z,6.80
2018-07-23T23:30:32.982Z,7.07
2018-07-23T23:33:01.483Z,6.70
2018-07-23T23:35:29.945Z,6.30
2018-07-23T23:37:58.458Z,7.10
2018-07-23T23:40:26.925Z,7.60
2018-07-23T23:42:55.401Z,7.03
2018-07-23T23:45:23.853Z,7.70
2018-07-23T23:47:52.327Z,8.00
2018-07-23T23:50:20.801Z,7.97
2018-07-23T23:52:49.253Z,8.27
2018-07-23T23:55:17.721Z,8.07
2018-07-23T23:57:45.869Z,7.10
